Time;durP1;ratioP1;P1;durP2;ratioP2;P2;SDS_P1;SDS_P2;PMS_P1;PMS_P2;Temp;Humidity;BMP_temperature;BMP_pressure;BME280_temperature;BME280_humidity;BME280_pressure;Samples;Min_cycle;Max_cycle;Signal;HPM_P1;HPM_P2
2021/07/01 00:00:13;;;;;;;3.10;2.40;;;;;;;;;;5009659;28;20473;-62
2021/07/01 00:02:39;;;;;;;3.80;3.00;;;;;;;;;;5009870;28;20033;-62
2021/07/01 00:05:06;;;;;;;4.47;2.80;;;;;;;;;;5010223;28;20034;-62
2021/07/01 00:07:32;;;;;;;3.45;2.60;;;;;;;;;;5009614;28;20034;-62
2021/07/01 00:09:57;;;;;;;3.80;2.58;;;;;;;;;;5009693;28;20451;-62
2021/07/01 00:12:23;;;;;;;3.35;2.53;;;;;;;;;;5009087;28;20032;-62
2021/07/01 00:14:49;;;;;;;3.85;2.78;;;;;;;;;;5012853;28;20037;-62
2021/07/01 00:17:14;;;;;;;5.10;2.58;;;;;;;;;;5011471;28;20483;-62
2021/07/01 00:19:39;;;;;;;4.35;2.13;;;;;;;;;;5010763;28;20494;-62
2021/07/01 00:22:05;;;;;;;2.22;1.92;;;;;;;;;;5012464;28;20536;-61
2021/07/01 00:24:31;;;;;;;2.95;2.05;;;;;;;;;;5011040;28;20030;-60
2021/07/01 00:26:56;;;;;;;3.15;2.03;;;;;;;;;;5011035;28;20396;-62
2021/07/01 00:29:22;;;;;;;4.90;2.10;;;;;;;;;;5009240;28;21055;-62
2021/07/01 00:31:47;;;;;;;3.17;2.10;;;;;;;;;;5009436;28;20022;-62
2021/07/01 00:34:13;;;;;;;2.20;2.00;;;;;;;;;;5011393;28;20136;-62
2021/07/01 00:36:38;;;;;;;2.10;1.90;;;;;;;;;;5011910;28;20165;-62
2021/07/01 00:39:05;;;;;;;2.80;1.83;;;;;;;;;;5011382;28;20025;-61
2021/07/01 00:41:30;;;;;;;2.08;1.73;;;;;;;;;;5008306;28;20028;-62
2021/07/01 00:43:55;;;;;;;2.28;1.95;;;;;;;;;;5008770;28;20037;-62
2021/07/01 00:46:21;;;;;;;2.88;1.60;;;;;;;;;;5011223;28;20076;-62
2021/07/01 00:48:46;;;;;;;1.98;1.70;;;;;;;;;;5024584;28;20029;-62
2021/07/01 00:51:12;;;;;;;2.78;1.73;;;;;;;;;;5010054;28;20083;-62
2021/07/01 00:53:38;;;;;;;1.60;1.45;;;;;;;;;;5008566;28;20034;-61
2021/07/01 00:56:05;;;;;;;2.58;1.60;;;;;;;;;;5009747;28;20034;-61
2021/07/01 00:58:31;;;;;;;1.95;1.45;;;;;;;;;;5008192;28;20037;-61
2021/07/01 01:03:25;;;;;;;2.25;1.50;;;;;;;;;;5012765;28;20396;-61
2021/07/01 01:05:50;;;;;;;1.75;1.63;;;;;;;;;;5009479;28;20265;-61
2021/07/01 01:08:16;;;;;;;1.55;1.40;;;;;;;;;;5010448;28;20037;-61
2021/07/01 01:10:41;;;;;;;2.03;1.60;;;;;;;;;;5011538;28;20022;-61
2021/07/01 01:13:07;;;;;;;2.88;1.52;;;;;;;;;;5009683;28;20107;-61
2021/07/01 01:15:32;;;;;;;2.15;1.52;;;;;;;;;;5018036;28;20560;-61
2021/07/01 01:17:57;;;;;;;2.70;1.55;;;;;;;;;;5011012;28;20460;-62
2021/07/01 01:20:23;;;;;;;2.33;1.75;;;;;;;;;;5009771;28;20026;-61
2021/07/01 01:22:48;;;;;;;2.67;1.83;;;;;;;;;;5007953;28;20026;-61
2021/07/01 01:25:14;;;;;;;2.25;1.70;;;;;;;;;;5014377;28;20038;-61
2021/07/01 01:27:39;;;;;;;3.83;1.85;;;;;;;;;;5012410;28;20369;-62
2021/07/01 01:30:06;;;;;;;2.22;1.65;;;;;;;;;;5008795;28;20041;-61
2021/07/01 01:32:31;;;;;;;2.35;1.73;;;;;;;;;;5002449;28;20447;-61
2021/07/01 01:34:57;;;;;;;1.60;1.30;;;;;;;;;;5014253;28;20033;-61
2021/07/01 01:37:22;;;;;;;1.50;1.40;;;;;;;;;;5012742;28;20033;-61
2021/07/01 01:39:50;;;;;;;1.98;1.60;;;;;;;;;;5011792;28;20132;-61
2021/07/01 01:42:16;;;;;;;2.22;1.60;;;;;;;;;;5039791;28;20091;-60
2021/07/01 01:44:42;;;;;;;2.30;1.92;;;;;;;;;;5011627;28;20061;-61
2021/07/01 01:47:18;;;;;;;2.05;1.70;;;;;;;;;;5014747;28;20064;-60
2021/07/01 01:49:48;;;;;;;3.25;1.92;;;;;;;;;;5007453;28;20125;-60
2021/07/01 01:52:13;;;;;;;;;;;;;;;;;;5011492;28;20100;-60
2021/07/01 01:54:39;;;;;;;4.45;1.80;;;;;;;;;;5011339;28;20407;-60
2021/07/01 01:57:05;;;;;;;2.45;1.90;;;;;;;;;;5011349;28;20033;-60
2021/07/01 01:59:30;;;;;;;2.17;1.98;;;;;;;;;;5010475;28;20026;-59
2021/07/01 02:01:56;;;;;;;2.63;1.67;;;;;;;;;;5007367;28;20260;-60
2021/07/01 02:04:21;;;;;;;3.10;1.80;;;;;;;;;;5008731;28;20038;-60
2021/07/01 02:06:46;;;;;;;2.10;1.90;;;;;;;;;;5007068;28;20033;-60
2021/07/01 02:09:12;;;;;;;2.03;1.80;;;;;;;;;;5010715;28;20044;-60
2021/07/01 02:11:37;;;;;;;3.00;2.03;;;;;;;;;;5013764;28;20065;-60
2021/07/01 02:14:03;;;;;;;3.22;1.90;;;;;;;;;;5009822;28;20040;-60
2021/07/01 02:16:29;;;;;;;2.30;1.90;;;;;;;;;;5008893;28;20506;-60
2021/07/01 02:18:54;;;;;;;2.88;2.15;;;;;;;;;;5017211;28;20025;-60
2021/07/01 02:21:20;;;;;;;2.17;1.80;;;;;;;;;;5020456;28;20025;-61
2021/07/01 02:23:47;;;;;;;2.15;1.83;;;;;;;;;;5011756;28;20527;-60
2021/07/01 02:26:12;;;;;;;2.35;1.92;;;;;;;;;;5012208;28;20036;-60
2021/07/01 02:28:38;;;;;;;3.25;1.95;;;;;;;;;;5012662;28;20038;-61
2021/07/01 02:31:03;;;;;;;2.90;2.20;;;;;;;;;;5018762;28;20022;-60
2021/07/01 02:33:29;;;;;;;2.38;1.88;;;;;;;;;;5012798;28;20080;-60
2021/07/01 02:35:54;;;;;;;3.58;1.95;;;;;;;;;;5015503;28;20304;-60
2021/07/01 02:38:20;;;;;;;3.50;2.25;;;;;;;;;;5018518;28;20030;-60
2021/07/01 02:40:45;;;;;;;2.60;1.90;;;;;;;;;;5013848;28;20080;-60
2021/07/01 02:43:11;;;;;;;2.35;2.05;;;;;;;;;;5018407;28;20026;-59
2021/07/01 02:45:36;;;;;;;2.75;2.10;;;;;;;;;;5018544;28;20029;-60
2021/07/01 02:48:02;;;;;;;3.70;2.03;;;;;;;;;;5014507;28;20400;-61
2021/07/01 02:50:28;;;;;;;4.68;2.10;;;;;;;;;;5012345;28;20049;-61
2021/07/01 02:52:53;;;;;;;2.58;2.13;;;;;;;;;;5012204;28;20060;-61
2021/07/01 02:55:19;;;;;;;2.70;2.20;;;;;;;;;;5013714;28;20068;-61
2021/07/01 02:57:45;;;;;;;3.30;2.20;;;;;;;;;;5018044;28;20026;-61
2021/07/01 03:00:15;;;;;;;2.75;2.13;;;;;;;;;;5012554;28;20061;-61
2021/07/01 03:02:41;;;;;;;2.75;2.30;;;;;;;;;;5018434;28;20053;-61
2021/07/01 03:05:07;;;;;;;3.50;2.47;;;;;;;;;;5013629;28;20053;-61
2021/07/01 03:07:32;;;;;;;2.47;2.03;;;;;;;;;;5010687;28;20033;-61
2021/07/01 03:09:58;;;;;;;2.67;2.10;;;;;;;;;;5012829;28;20112;-61
2021/07/01 03:12:24;;;;;;;4.03;3.30;;;;;;;;;;5013517;28;20409;-61
2021/07/01 03:14:50;;;;;;;5.45;3.72;;;;;;;;;;5011697;28;20615;-61
2021/07/01 03:17:16;;;;;;;3.00;2.40;;;;;;;;;;5012391;28;20083;-61
2021/07/01 03:19:41;;;;;;;4.30;2.42;;;;;;;;;;5015450;28;20072;-61
2021/07/01 03:22:07;;;;;;;2.67;2.33;;;;;;;;;;5014331;28;20022;-62
2021/07/01 03:24:32;;;;;;;3.33;2.22;;;;;;;;;;5011884;28;20033;-61
2021/07/01 03:27:00;;;;;;;2.88;2.28;;;;;;;;;;5010238;28;20056;-62
2021/07/01 03:29:28;;;;;;;2.92;2.28;;;;;;;;;;5012741;28;20112;-62
2021/07/01 03:31:54;;;;;;;4.38;2.40;;;;;;;;;;5010098;28;20029;-62
2021/07/01 03:34:20;;;;;;;2.83;2.15;;;;;;;;;;5012689;28;20037;-61
2021/07/01 03:36:45;;;;;;;2.50;2.15;;;;;;;;;;5014300;28;20487;-61
2021/07/01 03:39:11;;;;;;;3.08;2.17;;;;;;;;;;5019607;28;20476;-62
2021/07/01 03:41:37;;;;;;;4.78;2.40;;;;;;;;;;5013660;28;20105;-61
2021/07/01 03:44:02;;;;;;;2.47;2.08;;;;;;;;;;5014056;28;20026;-61
2021/07/01 03:46:28;;;;;;;5.05;3.40;;;;;;;;;;5013885;28;20324;-61
2021/07/01 03:48:53;;;;;;;5.13;2.50;;;;;;;;;;5012678;28;20033;-61
2021/07/01 03:51:19;;;;;;;2.42;2.03;;;;;;;;;;5011167;28;20051;-61
2021/07/01 03:53:44;;;;;;;2.58;1.98;;;;;;;;;;5010063;28;20417;-62
2021/07/01 03:56:11;;;;;;;4.68;2.47;;;;;;;;;;5013911;28;20215;-61
2021/07/01 03:58:37;;;;;;;2.70;2.20;;;;;;;;;;5010828;28;20072;-61
2021/07/01 04:01:03;;;;;;;2.60;2.10;;;;;;;;;;5013580;28;20045;-61
2021/07/01 04:03:28;;;;;;;3.45;2.33;;;;;;;;;;5011759;28;20501;-62
2021/07/01 04:05:54;;;;;;;2.28;2.03;;;;;;;;;;5012407;28;20092;-61
2021/07/01 04:08:19;;;;;;;4.78;2.15;;;;;;;;;;5009963;28;20034;-62
2021/07/01 04:10:44;;;;;;;2.75;2.33;;;;;;;;;;5013960;28;20443;-61
2021/07/01 04:13:10;;;;;;;4.57;3.05;;;;;;;;;;5015393;28;20110;-62
2021/07/01 04:15:36;;;;;;;3.30;2.50;;;;;;;;;;5009683;28;20026;-62
2021/07/01 04:18:12;;;;;;;2.75;2.25;;;;;;;;;;5010793;28;20407;-62
2021/07/01 04:20:38;;;;;;;3.33;2.60;;;;;;;;;;5015796;28;20036;-61
2021/07/01 04:23:04;;;;;;;2.40;2.15;;;;;;;;;;5009387;28;20037;-62
2021/07/01 04:25:30;;;;;;;3.10;2.67;;;;;;;;;;5008826;28;20403;-61
2021/07/01 04:27:56;;;;;;;3.17;2.60;;;;;;;;;;5008161;28;20611;-61
2021/07/01 04:30:21;;;;;;;3.63;2.95;;;;;;;;;;5008806;28;20128;-62
2021/07/01 04:32:46;;;;;;;3.97;3.00;;;;;;;;;;5010646;28;20335;-62
2021/07/01 04:35:12;;;;;;;3.38;2.97;;;;;;;;;;5009151;28;20029;-61
2021/07/01 04:37:37;;;;;;;4.68;2.85;;;;;;;;;;5012453;28;20033;-62
2021/07/01 04:40:08;;;;;;;3.15;2.75;;;;;;;;;;5012519;28;20877;-62
2021/07/01 04:42:35;;;;;;;4.78;2.75;;;;;;;;;;5008892;28;20037;-61
2021/07/01 04:45:00;;;;;;;5.00;3.20;;;;;;;;;;5013391;28;20038;-61
2021/07/01 04:47:26;;;;;;;4.15;2.50;;;;;;;;;;5011382;28;20044;-61
2021/07/01 04:49:51;;;;;;;3.42;2.88;;;;;;;;;;5007348;28;20044;-61
2021/07/01 04:52:17;;;;;;;3.95;2.63;;;;;;;;;;5010179;28;20553;-61
2021/07/01 04:54:42;;;;;;;3.33;2.72;;;;;;;;;;5009875;28;20026;-61
2021/07/01 04:57:08;;;;;;;2.97;2.67;;;;;;;;;;5009069;28;20026;-61
2021/07/01 04:59:33;;;;;;;3.15;2.72;;;;;;;;;;5010954;28;20033;-61
2021/07/01 05:01:59;;;;;;;4.07;3.00;;;;;;;;;;5013676;28;20026;-61
2021/07/01 05:04:24;;;;;;;4.93;3.00;;;;;;;;;;5009162;28;20489;-61
2021/07/01 05:06:50;;;;;;;4.25;2.88;;;;;;;;;;5014237;28;20032;-61
2021/07/01 05:09:15;;;;;;;7.18;3.08;;;;;;;;;;5009838;28;20312;-63
2021/07/01 05:11:41;;;;;;;3.97;3.00;;;;;;;;;;5010785;28;20037;-62
2021/07/01 05:14:06;;;;;;;4.82;3.70;;;;;;;;;;5007757;28;20033;-63
2021/07/01 05:16:33;;;;;;;4.63;3.38;;;;;;;;;;5009404;28;20413;-62
2021/07/01 05:19:00;;;;;;;5.63;3.60;;;;;;;;;;5009719;28;20392;-62
2021/07/01 05:21:25;;;;;;;4.72;3.30;;;;;;;;;;5008763;28;20056;-63
2021/07/01 05:23:51;;;;;;;5.05;3.30;;;;;;;;;;5008037;28;20559;-62
2021/07/01 05:26:17;;;;;;;3.45;2.80;;;;;;;;;;5013272;28;20026;-63
2021/07/01 05:28:44;;;;;;;3.85;3.15;;;;;;;;;;5023447;28;20041;-63
2021/07/01 05:31:09;;;;;;;5.72;3.20;;;;;;;;;;5008528;28;20109;-63
2021/07/01 05:33:34;;;;;;;4.10;2.97;;;;;;;;;;5008930;28;20172;-63
2021/07/01 05:36:00;;;;;;;3.83;3.35;;;;;;;;;;5008936;28;20125;-63
2021/07/01 05:38:25;;;;;;;5.75;3.30;;;;;;;;;;5007563;28;20117;-63
2021/07/01 05:40:51;;;;;;;3.85;3.15;;;;;;;;;;5020865;28;20140;-62
2021/07/01 05:43:16;;;;;;;4.22;2.65;;;;;;;;;;5008065;28;20026;-63
2021/07/01 05:45:42;;;;;;;5.28;2.90;;;;;;;;;;5013837;28;20072;-62
2021/07/01 05:48:08;;;;;;;3.63;2.92;;;;;;;;;;5010315;28;20026;-63
2021/07/01 05:50:41;;;;;;;4.68;3.30;;;;;;;;;;5008723;28;20029;-63
2021/07/01 05:53:10;;;;;;;4.43;2.95;;;;;;;;;;5004191;28;20095;-63
2021/07/01 05:55:35;;;;;;;4.50;3.45;;;;;;;;;;5007431;28;20022;-63
2021/07/01 05:58:01;;;;;;;3.83;2.97;;;;;;;;;;5008735;28;20032;-63
2021/07/01 06:00:28;;;;;;;4.30;3.08;;;;;;;;;;5009313;28;20087;-63
2021/07/01 06:02:54;;;;;;;4.65;3.53;;;;;;;;;;5003735;28;20062;-63
2021/07/01 06:05:20;;;;;;;5.05;3.55;;;;;;;;;;5007495;28;20049;-63
2021/07/01 06:07:49;;;;;;;4.10;3.17;;;;;;;;;;5009018;28;20060;-62
2021/07/01 06:10:18;;;;;;;5.07;3.65;;;;;;;;;;5009622;28;20026;-62
2021/07/01 06:12:45;;;;;;;4.90;3.35;;;;;;;;;;5006887;28;20038;-62
2021/07/01 06:15:11;;;;;;;4.78;3.50;;;;;;;;;;5008270;28;20084;-62
2021/07/01 06:17:39;;;;;;;5.75;3.35;;;;;;;;;;5011901;28;20042;-63
2021/07/01 06:20:07;;;;;;;5.67;3.40;;;;;;;;;;5006523;28;20519;-63
2021/07/01 06:22:33;;;;;;;6.55;3.45;;;;;;;;;;5007498;28;20292;-62
2021/07/01 06:24:59;;;;;;;4.07;3.05;;;;;;;;;;5010991;28;20096;-62
2021/07/01 06:27:39;;;;;;;3.83;3.40;;;;;;;;;;5004509;28;20523;-62
2021/07/01 06:30:18;;;;;;;5.32;3.25;;;;;;;;;;5005457;28;20036;-62
2021/07/01 06:32:47;;;;;;;5.15;3.72;;;;;;;;;;5006448;28;20037;-63
2021/07/01 06:35:21;;;;;;;4.45;3.50;;;;;;;;;;5012123;28;20043;-62
2021/07/01 06:37:48;;;;;;;5.72;3.22;;;;;;;;;;5016316;28;20033;-62
2021/07/01 06:40:14;;;;;;;3.88;3.13;;;;;;;;;;5009010;28;20061;-62
2021/07/01 06:42:47;;;;;;;7.15;3.83;;;;;;;;;;5009974;28;20488;-63
2021/07/01 06:45:15;;;;;;;6.95;3.95;;;;;;;;;;5008313;28;20128;-62
2021/07/01 06:47:48;;;;;;;4.13;3.25;;;;;;;;;;5012361;28;20030;-63
2021/07/01 06:50:16;;;;;;;5.40;3.47;;;;;;;;;;5007172;28;20497;-62
2021/07/01 06:52:44;;;;;;;4.88;3.28;;;;;;;;;;5006421;28;20470;-62
2021/07/01 06:55:15;;;;;;;6.47;3.85;;;;;;;;;;5006355;28;20400;-63
2021/07/01 06:57:41;;;;;;;5.00;3.88;;;;;;;;;;5006641;28;20030;-63
2021/07/01 07:00:09;;;;;;;6.63;3.75;;;;;;;;;;5007871;28;20048;-63
2021/07/01 07:02:36;;;;;;;5.32;4.13;;;;;;;;;;5012491;28;20038;-63
2021/07/01 07:05:07;;;;;;;4.93;3.45;;;;;;;;;;5007050;28;20026;-63
2021/07/01 07:07:33;;;;;;;6.72;3.60;;;;;;;;;;5011732;28;20088;-63
2021/07/01 07:10:04;;;;;;;4.43;3.67;;;;;;;;;;5016247;28;20037;-62
2021/07/01 07:12:30;;;;;;;8.00;4.07;;;;;;;;;;5014683;28;20488;-63
2021/07/01 07:14:56;;;;;;;5.40;3.90;;;;;;;;;;5010883;28;20112;-63
2021/07/01 07:17:27;;;;;;;5.53;3.58;;;;;;;;;;5006413;28;20164;-63
2021/07/01 07:19:55;;;;;;;4.85;3.50;;;;;;;;;;5023982;28;20120;-63
2021/07/01 07:22:21;;;;;;;5.22;3.22;;;;;;;;;;5013001;28;20407;-63
2021/07/01 07:24:52;;;;;;;4.07;3.20;;;;;;;;;;5013360;28;20042;-63
2021/07/01 07:27:25;;;;;;;3.30;2.47;;;;;;;;;;5010741;28;20067;-63
2021/07/01 07:29:50;;;;;;;4.10;3.03;;;;;;;;;;5011544;28;20033;-63
2021/07/01 07:32:16;;;;;;;4.22;3.20;;;;;;;;;;5009841;28;20025;-63
2021/07/01 07:34:42;;;;;;;5.25;3.58;;;;;;;;;;5011125;28;20512;-62
2021/07/01 07:37:08;;;;;;;3.97;3.30;;;;;;;;;;5011584;28;20030;-63
2021/07/01 07:39:33;;;;;;;3.50;3.03;;;;;;;;;;5015942;28;20044;-63
2021/07/01 07:41:59;;;;;;;6.65;3.40;;;;;;;;;;5013152;28;20140;-63
2021/07/01 07:44:25;;;;;;;4.60;3.30;;;;;;;;;;5011996;28;20717;-63
2021/07/01 07:46:51;;;;;;;3.45;3.00;;;;;;;;;;5009622;28;20018;-62
2021/07/01 07:49:17;;;;;;;4.60;2.85;;;;;;;;;;5010460;28;20480;-63
2021/07/01 07:51:48;;;;;;;4.72;2.80;;;;;;;;;;5006367;28;20035;-62
2021/07/01 07:54:15;;;;;;;5.25;3.42;;;;;;;;;;5016499;28;20061;-63
2021/07/01 07:56:42;;;;;;;4.90;3.53;;;;;;;;;;5013308;28;20141;-63
2021/07/01 07:59:11;;;;;;;6.13;3.65;;;;;;;;;;5008057;28;20025;-62
2021/07/01 08:01:38;;;;;;;5.38;3.40;;;;;;;;;;5025443;28;20049;-63
2021/07/01 08:04:05;;;;;;;4.20;3.00;;;;;;;;;;5011111;28;20041;-63
2021/07/01 08:06:32;;;;;;;4.72;3.47;;;;;;;;;;5011158;28;20041;-62
2021/07/01 08:09:00;;;;;;;5.75;3.63;;;;;;;;;;5013785;28;20468;-63
2021/07/01 08:11:26;;;;;;;5.70;3.20;;;;;;;;;;5008037;28;20036;-63
2021/07/01 08:13:58;;;;;;;5.10;3.15;;;;;;;;;;5009670;28;20021;-63
2021/07/01 08:16:26;;;;;;;7.43;4.70;;;;;;;;;;5011919;28;20056;-63
2021/07/01 08:18:52;;;;;;;4.72;3.78;;;;;;;;;;5006483;28;20064;-63
2021/07/01 08:21:18;;;;;;;6.55;3.55;;;;;;;;;;5042363;28;20054;-63
2021/07/01 08:23:44;;;;;;;5.60;3.65;;;;;;;;;;5009589;28;20026;-63
2021/07/01 08:26:11;;;;;;;4.60;3.38;;;;;;;;;;5009363;28;20546;-62
2021/07/01 08:28:37;;;;;;;6.75;3.70;;;;;;;;;;5011031;28;20383;-63
2021/07/01 08:31:08;;;;;;;4.95;3.40;;;;;;;;;;5011186;28;20029;-62
2021/07/01 08:33:36;;;;;;;6.05;3.50;;;;;;;;;;5004615;28;20117;-62
2021/07/01 08:36:04;;;;;;;4.80;3.63;;;;;;;;;;5011764;28;20139;-63
2021/07/01 08:38:37;;;;;;;5.30;3.28;;;;;;;;;;5012675;28;20400;-62
2021/07/01 08:41:26;;;;;;;6.22;4.20;;;;;;;;;;5008836;28;20571;-62
2021/07/01 08:44:00;;;;;;;4.93;3.55;;;;;;;;;;5007315;28;20046;-62
2021/07/01 08:46:44;;;;;;;5.93;3.80;;;;;;;;;;5011876;28;20469;-62
2021/07/01 08:49:10;;;;;;;4.15;3.20;;;;;;;;;;5002758;28;20030;-62
2021/07/01 08:51:39;;;;;;;3.33;2.88;;;;;;;;;;5004235;28;20022;-62
2021/07/01 08:54:24;;;;;;;4.15;3.40;;;;;;;;;;5024838;28;20026;-62
2021/07/01 08:56:52;;;;;;;3.85;2.83;;;;;;;;;;5007719;28;20343;-62
2021/07/01 08:59:19;;;;;;;5.38;4.07;;;;;;;;;;5008630;28;20060;-62
2021/07/01 09:01:53;;;;;;;3.75;3.05;;;;;;;;;;4996942;28;20038;-62
2021/07/01 09:04:22;;;;;;;3.92;2.70;;;;;;;;;;5009639;28;20037;-62
2021/07/01 09:06:55;;;;;;;3.38;2.20;;;;;;;;;;5007831;28;20030;-61
2021/07/01 09:09:24;;;;;;;3.00;2.35;;;;;;;;;;5007920;28;20401;-63
2021/07/01 09:11:51;;;;;;;2.60;2.40;;;;;;;;;;5008149;28;20392;-62
2021/07/01 09:14:18;;;;;;;4.18;2.75;;;;;;;;;;5013079;28;20119;-62
2021/07/01 09:16:43;;;;;;;2.72;2.17;;;;;;;;;;5004367;28;20100;-62
2021/07/01 09:19:09;;;;;;;4.60;2.63;;;;;;;;;;5008225;28;20041;-62
2021/07/01 09:21:34;;;;;;;4.18;2.65;;;;;;;;;;5009501;28;20033;-62
2021/07/01 09:24:02;;;;;;;4.15;2.47;;;;;;;;;;5011510;28;20029;-62
2021/07/01 09:26:29;;;;;;;3.92;3.10;;;;;;;;;;5010025;28;20029;-62
2021/07/01 09:28:56;;;;;;;3.50;3.20;;;;;;;;;;5009762;28;20033;-62
2021/07/01 09:31:23;;;;;;;4.03;2.90;;;;;;;;;;5008879;28;20032;-62
2021/07/01 09:33:51;;;;;;;3.75;2.80;;;;;;;;;;5009091;28;20084;-62
2021/07/01 09:36:20;;;;;;;3.50;2.60;;;;;;;;;;5007816;28;20056;-63
2021/07/01 09:38:46;;;;;;;5.60;3.05;;;;;;;;;;5007748;28;20053;-62
2021/07/01 09:41:13;;;;;;;5.78;3.13;;;;;;;;;;5008255;28;20037;-63
2021/07/01 09:43:41;;;;;;;4.13;3.47;;;;;;;;;;5012120;28;20025;-63
2021/07/01 09:46:12;;;;;;;3.60;3.17;;;;;;;;;;5010070;28;20037;-62
2021/07/01 09:48:45;;;;;;;3.17;2.88;;;;;;;;;;5009264;28;20038;-62
2021/07/01 09:51:11;;;;;;;3.72;3.30;;;;;;;;;;5007474;28;20030;-63
2021/07/01 09:53:38;;;;;;;4.10;3.30;;;;;;;;;;5009131;28;20070;-63
2021/07/01 09:56:08;;;;;;;4.97;3.95;;;;;;;;;;5046910;28;20563;-62
2021/07/01 09:58:38;;;;;;;3.30;3.00;;;;;;;;;;5008039;28;20519;-62
2021/07/01 10:01:04;;;;;;;5.22;3.75;;;;;;;;;;5020900;28;20026;-62
2021/07/01 10:03:29;;;;;;;5.13;3.65;;;;;;;;;;5011856;28;20480;-62
2021/07/01 10:05:55;;;;;;;4.28;3.40;;;;;;;;;;5002449;28;20080;-62
2021/07/01 10:08:37;;;;;;;6.55;3.58;;;;;;;;;;5022345;28;20041;-62
2021/07/01 10:11:02;;;;;;;4.75;3.70;;;;;;;;;;5010751;28;20433;-62
2021/07/01 10:13:28;;;;;;;4.90;3.70;;;;;;;;;;5006861;28;20025;-62
2021/07/01 10:15:53;;;;;;;3.72;3.13;;;;;;;;;;5011692;28;20030;-62
2021/07/01 10:18:21;;;;;;;3.42;2.70;;;;;;;;;;5009627;28;20033;-63
2021/07/01 10:20:48;;;;;;;3.83;2.78;;;;;;;;;;5007760;28;20032;-63
2021/07/01 10:23:22;;;;;;;2.50;2.28;;;;;;;;;;5007164;28;20060;-63
2021/07/01 10:25:50;;;;;;;2.67;2.47;;;;;;;;;;5007744;28;20034;-63
2021/07/01 10:28:17;;;;;;;2.15;1.95;;;;;;;;;;5010066;28;20626;-63
2021/07/01 10:30:59;;;;;;;3.58;2.38;;;;;;;;;;5007940;28;20026;-63
2021/07/01 10:33:27;;;;;;;3.47;2.63;;;;;;;;;;5000771;28;20373;-62
2021/07/01 10:35:56;;;;;;;3.15;2.47;;;;;;;;;;5011724;28;20041;-63
2021/07/01 10:38:22;;;;;;;2.50;2.30;;;;;;;;;;5008408;28;20458;-64
2021/07/01 10:40:50;;;;;;;3.28;2.25;;;;;;;;;;5009152;28;20453;-62
2021/07/01 10:43:17;;;;;;;2.35;2.15;;;;;;;;;;5013084;28;20022;-62
2021/07/01 10:45:58;;;;;;;2.83;2.40;;;;;;;;;;5010300;28;20034;-64
2021/07/01 10:48:26;;;;;;;2.88;2.58;;;;;;;;;;5012712;28;20463;-64
2021/07/01 10:50:53;;;;;;;3.22;2.60;;;;;;;;;;5010478;28;20117;-63
2021/07/01 10:53:33;;;;;;;3.47;2.78;;;;;;;;;;5008918;28;20030;-63
2021/07/01 10:56:16;;;;;;;3.78;2.60;;;;;;;;;;5007515;28;20026;-63
2021/07/01 10:58:43;;;;;;;3.58;3.03;;;;;;;;;;5010114;28;20029;-63
2021/07/01 11:01:21;;;;;;;4.03;2.85;;;;;;;;;;5008306;28;20018;-63
2021/07/01 11:03:47;;;;;;;3.03;2.72;;;;;;;;;;5014556;28;20033;-63
2021/07/01 11:06:17;;;;;;;4.45;3.35;;;;;;;;;;5009725;28;20087;-63
2021/07/01 11:08:43;;;;;;;3.03;2.72;;;;;;;;;;5012426;28;20041;-63
2021/07/01 11:11:23;;;;;;;3.20;2.90;;;;;;;;;;5010912;28;20017;-63
2021/07/01 11:13:58;;;;;;;3.53;2.90;;;;;;;;;;5010697;28;20029;-63
2021/07/01 11:16:43;;;;;;;2.78;2.58;;;;;;;;;;5010713;28;20456;-63
2021/07/01 11:19:12;;;;;;;4.60;3.00;;;;;;;;;;5010488;28;20036;-63
2021/07/01 11:21:44;;;;;;;3.10;2.58;;;;;;;;;;5005096;28;20037;-64
2021/07/01 11:24:13;;;;;;;4.00;3.03;;;;;;;;;;5009082;28;20461;-63
2021/07/01 11:26:40;;;;;;;3.42;2.72;;;;;;;;;;5009736;28;20037;-64
2021/07/01 11:29:08;;;;;;;2.78;2.38;;;;;;;;;;5009508;28;20052;-63
2021/07/01 11:31:44;;;;;;;2.92;2.28;;;;;;;;;;5009463;28;20034;-64
2021/07/01 11:34:15;;;;;;;2.95;2.40;;;;;;;;;;5009685;28;20075;-63
2021/07/01 11:36:47;;;;;;;2.60;2.13;;;;;;;;;;5009703;28;20534;-64
2021/07/01 11:39:16;;;;;;;2.78;2.50;;;;;;;;;;5009131;28;20030;-64
2021/07/01 11:41:43;;;;;;;2.45;2.13;;;;;;;;;;5008129;28;20034;-64
2021/07/01 11:44:11;;;;;;;4.13;2.35;;;;;;;;;;5009563;28;20187;-64
2021/07/01 11:46:39;;;;;;;2.53;2.10;;;;;;;;;;5010054;28;20040;-64
2021/07/01 11:49:05;;;;;;;2.78;2.35;;;;;;;;;;5008602;28;20021;-64
2021/07/01 11:51:32;;;;;;;2.90;2.60;;;;;;;;;;5012648;28;20443;-64
2021/07/01 11:53:58;;;;;;;4.35;2.72;;;;;;;;;;5011599;28;20408;-64
2021/07/01 11:56:24;;;;;;;5.00;2.88;;;;;;;;;;5008456;28;20245;-63
2021/07/01 11:58:49;;;;;;;2.92;2.63;;;;;;;;;;5010181;28;20039;-63
2021/07/01 12:01:16;;;;;;;3.53;2.60;;;;;;;;;;5022323;28;20036;-62
2021/07/01 12:03:46;;;;;;;2.95;2.40;;;;;;;;;;5008112;28;20033;-63
2021/07/01 12:06:40;;;;;;;2.90;2.55;;;;;;;;;;5010218;28;20484;-64
2021/07/01 12:09:09;;;;;;;4.32;2.97;;;;;;;;;;5007600;28;20025;-63
2021/07/01 12:11:55;;;;;;;;;;;;;;;;;;5007968;28;20484;-63
2021/07/01 12:14:37;;;;;;;4.05;2.90;;;;;;;;;;5008363;28;19982;-63
2021/07/01 12:17:03;;;;;;;5.45;3.42;;;;;;;;;;5011777;28;20032;-63
2021/07/01 12:19:47;;;;;;;3.67;3.00;;;;;;;;;;5009130;28;20030;-63
2021/07/01 12:22:40;;;;;;;3.67;3.28;;;;;;;;;;5007869;28;20036;-63
2021/07/01 12:25:25;;;;;;;3.83;3.00;;;;;;;;;;5012582;28;20022;-63
2021/07/01 12:28:07;;;;;;;4.28;3.10;;;;;;;;;;5008981;28;20513;-63
2021/07/01 12:30:57;;;;;;;3.97;3.00;;;;;;;;;;5007878;28;20042;-63
2021/07/01 12:33:29;;;;;;;4.50;3.13;;;;;;;;;;5008255;28;20405;-63
2021/07/01 12:36:27;;;;;;;3.67;2.80;;;;;;;;;;5009600;28;20108;-63
2021/07/01 12:39:05;;;;;;;3.78;3.40;;;;;;;;;;5012172;28;20127;-63
2021/07/01 12:41:40;;;;;;;3.78;2.92;;;;;;;;;;5038984;28;20030;-63
2021/07/01 12:44:16;;;;;;;5.75;3.90;;;;;;;;;;5008360;28;20032;-62
2021/07/01 12:46:47;;;;;;;3.65;2.90;;;;;;;;;;5006777;28;20548;-63
2021/07/01 12:49:16;;;;;;;4.32;3.00;;;;;;;;;;5009555;28;20037;-63
2021/07/01 12:51:45;;;;;;;4.20;3.50;;;;;;;;;;5007983;28;20388;-63
2021/07/01 12:54:37;;;;;;;4.20;3.08;;;;;;;;;;5009212;28;20276;-63
2021/07/01 12:57:10;;;;;;;4.85;3.00;;;;;;;;;;4999395;28;20652;-63
2021/07/01 12:59:47;;;;;;;3.38;2.95;;;;;;;;;;5007136;28;20121;-63
2021/07/01 13:02:18;;;;;;;4.95;3.10;;;;;;;;;;5007377;28;20040;-63
2021/07/01 13:04:48;;;;;;;4.63;3.38;;;;;;;;;;5007424;28;20021;-63
2021/07/01 13:07:17;;;;;;;5.72;3.78;;;;;;;;;;5011892;28;20060;-63
2021/07/01 13:09:46;;;;;;;5.18;4.18;;;;;;;;;;5009930;28;20441;-63
2021/07/01 13:12:21;;;;;;;6.20;4.22;;;;;;;;;;5007774;28;20499;-63
2021/07/01 13:14:46;;;;;;;4.82;3.90;;;;;;;;;;5025402;28;20084;-63
2021/07/01 13:17:17;;;;;;;5.07;3.58;;;;;;;;;;5016283;28;20065;-63
2021/07/01 13:19:49;;;;;;;5.00;3.40;;;;;;;;;;5011310;28;20030;-63
2021/07/01 13:22:22;;;;;;;7.15;3.50;;;;;;;;;;5010173;28;20496;-63
2021/07/01 13:24:52;;;;;;;4.32;3.65;;;;;;;;;;5007633;28;20029;-63
2021/07/01 13:27:40;;;;;;;4.13;3.65;;;;;;;;;;5010493;28;20352;-62
2021/07/01 13:30:16;;;;;;;3.60;3.25;;;;;;;;;;5007026;28;20052;-63
2021/07/01 13:32:43;;;;;;;4.05;3.60;;;;;;;;;;5011903;28;20033;-63
2021/07/01 13:35:11;;;;;;;4.43;3.53;;;;;;;;;;5007189;28;20091;-63
2021/07/01 13:37:38;;;;;;;4.68;4.03;;;;;;;;;;5008064;28;20041;-63
2021/07/01 13:40:22;;;;;;;6.82;3.50;;;;;;;;;;5008297;28;20534;-64
2021/07/01 13:42:50;;;;;;;4.20;3.33;;;;;;;;;;5007130;28;20508;-63
2021/07/01 13:45:18;;;;;;;4.13;3.53;;;;;;;;;;5009961;28;20109;-63
2021/07/01 13:47:51;;;;;;;4.18;3.65;;;;;;;;;;5008617;28;20226;-63
2021/07/01 13:50:39;;;;;;;4.38;3.88;;;;;;;;;;5011048;28;20030;-62
2021/07/01 13:53:08;;;;;;;4.30;3.33;;;;;;;;;;5009528;28;20021;-63
2021/07/01 13:55:37;;;;;;;5.80;3.60;;;;;;;;;;5005511;28;20061;-62
2021/07/01 13:58:04;;;;;;;4.28;3.88;;;;;;;;;;5008592;28;20397;-63
2021/07/01 14:00:39;;;;;;;4.97;3.47;;;;;;;;;;5007027;28;20033;-62
2021/07/01 14:03:16;;;;;;;4.50;3.50;;;;;;;;;;5005926;28;20025;-63
2021/07/01 14:05:48;;;;;;;5.20;4.20;;;;;;;;;;5005604;28;20033;-63
2021/07/01 14:08:29;;;;;;;4.60;3.63;;;;;;;;;;5005516;28;20441;-62
2021/07/01 14:11:05;;;;;;;4.90;3.75;;;;;;;;;;5005678;28;20048;-62
2021/07/01 14:13:57;;;;;;;6.00;3.85;;;;;;;;;;5008868;28;20036;-63
2021/07/01 14:16:31;;;;;;;4.18;3.78;;;;;;;;;;5005890;28;20040;-64
2021/07/01 14:18:59;;;;;;;4.80;3.50;;;;;;;;;;5005096;28;20030;-64
2021/07/01 14:21:39;;;;;;;4.40;3.70;;;;;;;;;;5006659;28;20040;-64
2021/07/01 14:24:12;;;;;;;4.35;3.42;;;;;;;;;;5004802;28;20080;-63
2021/07/01 14:26:48;;;;;;;3.78;3.30;;;;;;;;;;5007530;28;20037;-63
2021/07/01 14:29:15;;;;;;;4.85;3.83;;;;;;;;;;5007464;28;20099;-63
2021/07/01 14:31:40;;;;;;;4.95;4.28;;;;;;;;;;5005402;28;20049;-63
2021/07/01 14:34:06;;;;;;;5.93;4.18;;;;;;;;;;5007247;28;20611;-63
2021/07/01 14:36:35;;;;;;;4.95;3.50;;;;;;;;;;5006334;28;20045;-64
2021/07/01 14:39:07;;;;;;;3.85;3.45;;;;;;;;;;5007279;28;20036;-63
2021/07/01 14:41:37;;;;;;;5.15;3.67;;;;;;;;;;5005456;28;20242;-63
2021/07/01 14:44:05;;;;;;;6.45;3.88;;;;;;;;;;5006324;28;20585;-63
2021/07/01 14:46:34;;;;;;;5.13;3.72;;;;;;;;;;5012937;28;20350;-63
2021/07/01 14:49:11;;;;;;;6.75;3.90;;;;;;;;;;5007543;28;20450;-64
2021/07/01 14:51:43;;;;;;;4.25;3.47;;;;;;;;;;5010384;28;20408;-64
2021/07/01 14:54:14;;;;;;;4.25;3.55;;;;;;;;;;5006951;28;20037;-64